sensor_id;sensor_type;location;lat;lon;timestamp;P1;durP1;ratioP1;P2;durP2;ratioP2
48859;SDS011;34679;51.436;-2.518;2022-12-18T00:01:51;14.63;;;9.45;;
48859;SDS011;34679;51.436;-2.518;2022-12-18T00:04:21;15.45;;;9.15;;
48859;SDS011;34679;51.436;-2.518;2022-12-18T00:06:48;17.40;;;8.70;;
48859;SDS011;34679;51.436;-2.518;2022-12-18T00:09:14;18.02;;;10.18;;
48859;SDS011;34679;51.436;-2.518;2022-12-18T00:11:40;18.05;;;9.60;;
48859;SDS011;34679;51.436;-2.518;2022-12-18T00:14:06;20.50;;;9.15;;
48859;SDS011;34679;51.436;-2.518;2022-12-18T00:16:32;15.15;;;8.40;;
48859;SDS011;34679;51.436;-2.518;2022-12-18T00:19:00;13.13;;;7.97;;
48859;SDS011;34679;51.436;-2.518;2022-12-18T00:21:27;16.13;;;7.75;;
48859;SDS011;34679;51.436;-2.518;2022-12-18T00:23:54;14.75;;;8.95;;
48859;SDS011;34679;51.436;-2.518;2022-12-18T00:26:24;17.02;;;7.32;;
48859;SDS011;34679;51.436;-2.518;2022-12-18T00:28:51;20.73;;;8.60;;
48859;SDS011;34679;51.436;-2.518;2022-12-18T00:31:22;13.00;;;7.90;;
48859;SDS011;34679;51.436;-2.518;2022-12-18T00:33:49;16.88;;;9.43;;
48859;SDS011;34679;51.436;-2.518;2022-12-18T00:36:19;19.50;;;8.93;;
48859;SDS011;34679;51.436;-2.518;2022-12-18T00:38:46;14.82;;;8.55;;
48859;SDS011;34679;51.436;-2.518;2022-12-18T00:41:14;13.57;;;7.32;;
48859;SDS011;34679;51.436;-2.518;2022-12-18T00:44:00;12.30;;;6.88;;
48859;SDS011;34679;51.436;-2.518;2022-12-18T00:46:27;12.82;;;6.93;;
48859;SDS011;34679;51.436;-2.518;2022-12-18T00:48:53;10.63;;;6.65;;
48859;SDS011;34679;51.436;-2.518;2022-12-18T00:51:18;14.48;;;6.95;;
48859;SDS011;34679;51.436;-2.518;2022-12-18T00:53:44;16.15;;;6.78;;
48859;SDS011;34679;51.436;-2.518;2022-12-18T00:56:10;12.65;;;7.55;;
48859;SDS011;34679;51.436;-2.518;2022-12-18T00:58:35;14.40;;;7.63;;
48859;SDS011;34679;51.436;-2.518;2022-12-18T01:01:03;12.73;;;6.72;;
48859;SDS011;34679;51.436;-2.518;2022-12-18T01:03:29;17.42;;;8.38;;
48859;SDS011;34679;51.436;-2.518;2022-12-18T01:05:55;14.52;;;8.15;;
48859;SDS011;34679;51.436;-2.518;2022-12-18T01:08:21;15.43;;;7.25;;
48859;SDS011;34679;51.436;-2.518;2022-12-18T01:10:47;10.80;;;7.10;;
48859;SDS011;34679;51.436;-2.518;2022-12-18T01:13:12;13.55;;;7.63;;
48859;SDS011;34679;51.436;-2.518;2022-12-18T01:15:38;18.92;;;7.30;;
48859;SDS011;34679;51.436;-2.518;2022-12-18T01:18:04;13.55;;;7.65;;
48859;SDS011;34679;51.436;-2.518;2022-12-18T01:20:30;15.60;;;7.47;;
48859;SDS011;34679;51.436;-2.518;2022-12-18T01:22:56;16.38;;;8.63;;
48859;SDS011;34679;51.436;-2.518;2022-12-18T01:25:22;15.85;;;8.20;;
48859;SDS011;34679;51.436;-2.518;2022-12-18T01:27:47;12.38;;;8.20;;
48859;SDS011;34679;51.436;-2.518;2022-12-18T01:30:13;11.65;;;7.78;;
48859;SDS011;34679;51.436;-2.518;2022-12-18T01:32:39;13.93;;;7.97;;
48859;SDS011;34679;51.436;-2.518;2022-12-18T01:35:05;15.63;;;7.47;;
48859;SDS011;34679;51.436;-2.518;2022-12-18T01:37:31;16.85;;;8.52;;
48859;SDS011;34679;51.436;-2.518;2022-12-18T01:39:57;13.95;;;7.43;;
48859;SDS011;34679;51.436;-2.518;2022-12-18T01:42:22;14.18;;;7.80;;
48859;SDS011;34679;51.436;-2.518;2022-12-18T01:47:48;14.82;;;8.65;;
48859;SDS011;34679;51.436;-2.518;2022-12-18T01:52:58;19.83;;;9.13;;
48859;SDS011;34679;51.436;-2.518;2022-12-18T01:55:29;16.70;;;8.88;;
48859;SDS011;34679;51.436;-2.518;2022-12-18T01:57:57;14.30;;;8.73;;
48859;SDS011;34679;51.436;-2.518;2022-12-18T02:00:25;17.65;;;8.05;;
48859;SDS011;34679;51.436;-2.518;2022-12-18T02:02:52;15.20;;;8.15;;
48859;SDS011;34679;51.436;-2.518;2022-12-18T02:05:27;15.45;;;9.07;;
48859;SDS011;34679;51.436;-2.518;2022-12-18T02:10:54;15.77;;;8.00;;
48859;SDS011;34679;51.436;-2.518;2022-12-18T02:22:14;19.42;;;8.65;;
48859;SDS011;34679;51.436;-2.518;2022-12-18T02:24:54;18.13;;;8.75;;
48859;SDS011;34679;51.436;-2.518;2022-12-18T02:27:23;14.50;;;8.07;;
48859;SDS011;34679;51.436;-2.518;2022-12-18T02:29:53;12.30;;;7.50;;
48859;SDS011;34679;51.436;-2.518;2022-12-18T02:32:25;17.15;;;8.65;;
48859;SDS011;34679;51.436;-2.518;2022-12-18T02:34:54;16.00;;;8.57;;
48859;SDS011;34679;51.436;-2.518;2022-12-18T02:37:22;15.38;;;8.02;;
48859;SDS011;34679;51.436;-2.518;2022-12-18T02:39:50;14.80;;;7.78;;
48859;SDS011;34679;51.436;-2.518;2022-12-18T02:42:18;17.45;;;8.25;;
48859;SDS011;34679;51.436;-2.518;2022-12-18T02:44:45;18.50;;;7.85;;
48859;SDS011;34679;51.436;-2.518;2022-12-18T02:47:13;13.75;;;7.50;;
48859;SDS011;34679;51.436;-2.518;2022-12-18T03:00:46;13.57;;;8.65;;
48859;SDS011;34679;51.436;-2.518;2022-12-18T03:03:28;15.25;;;8.65;;
48859;SDS011;34679;51.436;-2.518;2022-12-18T03:05:59;14.00;;;7.95;;
48859;SDS011;34679;51.436;-2.518;2022-12-18T03:08:35;14.90;;;7.80;;
48859;SDS011;34679;51.436;-2.518;2022-12-18T03:11:05;19.00;;;8.55;;
48859;SDS011;34679;51.436;-2.518;2022-12-18T03:16:17;13.35;;;8.07;;
48859;SDS011;34679;51.436;-2.518;2022-12-18T03:18:49;17.73;;;8.40;;
48859;SDS011;34679;51.436;-2.518;2022-12-18T03:21:32;18.58;;;8.90;;
48859;SDS011;34679;51.436;-2.518;2022-12-18T03:24:03;12.98;;;8.68;;
48859;SDS011;34679;51.436;-2.518;2022-12-18T03:26:32;13.07;;;7.28;;
48859;SDS011;34679;51.436;-2.518;2022-12-18T03:29:00;14.43;;;8.77;;
48859;SDS011;34679;51.436;-2.518;2022-12-18T03:31:31;17.98;;;9.25;;
48859;SDS011;34679;51.436;-2.518;2022-12-18T03:33:58;18.77;;;8.75;;
48859;SDS011;34679;51.436;-2.518;2022-12-18T03:36:27;18.70;;;8.48;;
48859;SDS011;34679;51.436;-2.518;2022-12-18T03:38:53;12.55;;;8.10;;
48859;SDS011;34679;51.436;-2.518;2022-12-18T03:54:46;19.88;;;9.75;;
48859;SDS011;34679;51.436;-2.518;2022-12-18T03:57:19;17.83;;;8.85;;
48859;SDS011;34679;51.436;-2.518;2022-12-18T03:59:48;18.38;;;9.02;;
48859;SDS011;34679;51.436;-2.518;2022-12-18T04:02:17;17.45;;;9.38;;
48859;SDS011;34679;51.436;-2.518;2022-12-18T04:04:43;14.38;;;9.02;;
48859;SDS011;34679;51.436;-2.518;2022-12-18T04:07:12;14.98;;;8.52;;
48859;SDS011;34679;51.436;-2.518;2022-12-18T04:09:39;17.73;;;9.63;;
48859;SDS011;34679;51.436;-2.518;2022-12-18T04:12:08;17.90;;;9.63;;
48859;SDS011;34679;51.436;-2.518;2022-12-18T04:14:33;19.65;;;8.85;;
48859;SDS011;34679;51.436;-2.518;2022-12-18T04:17:01;20.35;;;10.32;;
48859;SDS011;34679;51.436;-2.518;2022-12-18T04:19:27;12.73;;;7.95;;
48859;SDS011;34679;51.436;-2.518;2022-12-18T04:21:53;18.38;;;9.25;;
48859;SDS011;34679;51.436;-2.518;2022-12-18T04:24:19;15.15;;;8.00;;
48859;SDS011;34679;51.436;-2.518;2022-12-18T04:26:44;14.32;;;8.68;;
48859;SDS011;34679;51.436;-2.518;2022-12-18T04:29:10;12.23;;;6.95;;
48859;SDS011;34679;51.436;-2.518;2022-12-18T04:31:36;24.33;;;11.20;;
48859;SDS011;34679;51.436;-2.518;2022-12-18T04:34:02;16.48;;;10.73;;
48859;SDS011;34679;51.436;-2.518;2022-12-18T04:36:28;13.15;;;7.60;;
48859;SDS011;34679;51.436;-2.518;2022-12-18T04:38:54;20.27;;;10.63;;
48859;SDS011;34679;51.436;-2.518;2022-12-18T04:41:20;18.65;;;9.82;;
48859;SDS011;34679;51.436;-2.518;2022-12-18T04:43:46;16.48;;;10.32;;
48859;SDS011;34679;51.436;-2.518;2022-12-18T04:46:11;20.00;;;10.85;;
48859;SDS011;34679;51.436;-2.518;2022-12-18T04:48:38;16.83;;;8.88;;
48859;SDS011;34679;51.436;-2.518;2022-12-18T04:51:04;15.55;;;8.77;;
48859;SDS011;34679;51.436;-2.518;2022-12-18T04:53:30;21.13;;;10.70;;
48859;SDS011;34679;51.436;-2.518;2022-12-18T04:58:30;15.05;;;8.52;;
48859;SDS011;34679;51.436;-2.518;2022-12-18T05:00:55;18.73;;;10.80;;
48859;SDS011;34679;51.436;-2.518;2022-12-18T05:03:21;21.92;;;12.15;;
48859;SDS011;34679;51.436;-2.518;2022-12-18T05:05:50;11.25;;;5.63;;
48859;SDS011;34679;51.436;-2.518;2022-12-18T05:08:16;21.02;;;9.40;;
48859;SDS011;34679;51.436;-2.518;2022-12-18T05:10:42;18.23;;;7.78;;
48859;SDS011;34679;51.436;-2.518;2022-12-18T05:13:08;22.65;;;11.98;;
48859;SDS011;34679;51.436;-2.518;2022-12-18T05:15:34;15.98;;;7.43;;
48859;SDS011;34679;51.436;-2.518;2022-12-18T05:18:00;21.80;;;11.38;;
48859;SDS011;34679;51.436;-2.518;2022-12-18T05:20:27;24.13;;;11.88;;
48859;SDS011;34679;51.436;-2.518;2022-12-18T05:22:53;20.83;;;9.20;;
48859;SDS011;34679;51.436;-2.518;2022-12-18T05:25:19;18.48;;;9.82;;
48859;SDS011;34679;51.436;-2.518;2022-12-18T05:27:46;25.80;;;12.40;;
48859;SDS011;34679;51.436;-2.518;2022-12-18T05:30:12;19.17;;;9.73;;
48859;SDS011;34679;51.436;-2.518;2022-12-18T05:32:38;21.77;;;10.88;;
48859;SDS011;34679;51.436;-2.518;2022-12-18T05:35:05;24.48;;;13.27;;
48859;SDS011;34679;51.436;-2.518;2022-12-18T05:37:32;14.90;;;6.10;;
48859;SDS011;34679;51.436;-2.518;2022-12-18T05:39:58;25.15;;;12.27;;
48859;SDS011;34679;51.436;-2.518;2022-12-18T05:42:24;24.35;;;9.75;;
48859;SDS011;34679;51.436;-2.518;2022-12-18T05:44:49;27.17;;;13.60;;
48859;SDS011;34679;51.436;-2.518;2022-12-18T05:47:15;27.15;;;8.77;;
48859;SDS011;34679;51.436;-2.518;2022-12-18T05:49:41;23.95;;;12.45;;
48859;SDS011;34679;51.436;-2.518;2022-12-18T05:52:07;24.80;;;12.23;;
48859;SDS011;34679;51.436;-2.518;2022-12-18T05:54:33;19.65;;;11.82;;
48859;SDS011;34679;51.436;-2.518;2022-12-18T05:56:58;29.40;;;13.68;;
48859;SDS011;34679;51.436;-2.518;2022-12-18T05:59:24;27.73;;;12.27;;
48859;SDS011;34679;51.436;-2.518;2022-12-18T06:01:50;26.77;;;13.77;;
48859;SDS011;34679;51.436;-2.518;2022-12-18T06:04:16;30.42;;;14.98;;
48859;SDS011;34679;51.436;-2.518;2022-12-18T06:06:42;24.63;;;11.18;;
48859;SDS011;34679;51.436;-2.518;2022-12-18T06:09:07;28.98;;;13.77;;
48859;SDS011;34679;51.436;-2.518;2022-12-18T06:11:37;20.70;;;12.35;;
48859;SDS011;34679;51.436;-2.518;2022-12-18T06:14:04;21.35;;;10.05;;
48859;SDS011;34679;51.436;-2.518;2022-12-18T06:16:31;25.73;;;11.98;;
48859;SDS011;34679;51.436;-2.518;2022-12-18T06:19:02;30.15;;;13.82;;
48859;SDS011;34679;51.436;-2.518;2022-12-18T06:21:29;26.98;;;13.65;;
48859;SDS011;34679;51.436;-2.518;2022-12-18T06:23:55;18.67;;;11.32;;
48859;SDS011;34679;51.436;-2.518;2022-12-18T06:26:21;21.50;;;10.80;;
48859;SDS011;34679;51.436;-2.518;2022-12-18T06:28:47;26.40;;;14.10;;
48859;SDS011;34679;51.436;-2.518;2022-12-18T06:31:13;25.98;;;12.55;;
48859;SDS011;34679;51.436;-2.518;2022-12-18T06:33:39;27.23;;;12.75;;
48859;SDS011;34679;51.436;-2.518;2022-12-18T06:36:09;25.60;;;13.48;;
48859;SDS011;34679;51.436;-2.518;2022-12-18T06:38:37;21.85;;;10.13;;
48859;SDS011;34679;51.436;-2.518;2022-12-18T06:41:11;26.05;;;13.48;;
48859;SDS011;34679;51.436;-2.518;2022-12-18T06:43:38;26.85;;;14.43;;
48859;SDS011;34679;51.436;-2.518;2022-12-18T06:46:04;27.25;;;15.35;;
48859;SDS011;34679;51.436;-2.518;2022-12-18T06:48:31;27.77;;;14.85;;
48859;SDS011;34679;51.436;-2.518;2022-12-18T06:50:56;31.10;;;14.48;;
48859;SDS011;34679;51.436;-2.518;2022-12-18T06:53:22;31.05;;;15.27;;
48859;SDS011;34679;51.436;-2.518;2022-12-18T06:55:49;29.02;;;14.45;;
48859;SDS011;34679;51.436;-2.518;2022-12-18T06:58:15;28.75;;;14.60;;
48859;SDS011;34679;51.436;-2.518;2022-12-18T07:00:40;28.95;;;14.80;;
48859;SDS011;34679;51.436;-2.518;2022-12-18T07:03:06;30.52;;;13.63;;
48859;SDS011;34679;51.436;-2.518;2022-12-18T07:05:32;32.78;;;14.48;;
48859;SDS011;34679;51.436;-2.518;2022-12-18T07:07:58;24.83;;;13.10;;
48859;SDS011;34679;51.436;-2.518;2022-12-18T07:10:24;32.10;;;14.02;;
48859;SDS011;34679;51.436;-2.518;2022-12-18T07:12:50;32.30;;;14.88;;
48859;SDS011;34679;51.436;-2.518;2022-12-18T07:15:15;28.08;;;13.43;;
48859;SDS011;34679;51.436;-2.518;2022-12-18T07:17:41;25.83;;;13.77;;
48859;SDS011;34679;51.436;-2.518;2022-12-18T07:20:07;28.48;;;14.63;;
48859;SDS011;34679;51.436;-2.518;2022-12-18T07:22:33;22.45;;;11.45;;
48859;SDS011;34679;51.436;-2.518;2022-12-18T07:24:59;25.67;;;13.60;;
48859;SDS011;34679;51.436;-2.518;2022-12-18T07:27:25;28.45;;;13.65;;
48859;SDS011;34679;51.436;-2.518;2022-12-18T07:29:50;28.77;;;13.65;;
48859;SDS011;34679;51.436;-2.518;2022-12-18T07:32:16;30.25;;;13.95;;
48859;SDS011;34679;51.436;-2.518;2022-12-18T07:34:42;22.23;;;12.98;;
48859;SDS011;34679;51.436;-2.518;2022-12-18T07:37:07;28.80;;;12.52;;
48859;SDS011;34679;51.436;-2.518;2022-12-18T07:39:33;24.65;;;13.60;;
48859;SDS011;34679;51.436;-2.518;2022-12-18T07:41:59;25.33;;;12.85;;
48859;SDS011;34679;51.436;-2.518;2022-12-18T07:44:43;25.08;;;12.07;;
48859;SDS011;34679;51.436;-2.518;2022-12-18T07:47:08;21.25;;;11.32;;
48859;SDS011;34679;51.436;-2.518;2022-12-18T07:49:34;22.63;;;11.85;;
48859;SDS011;34679;51.436;-2.518;2022-12-18T07:52:00;29.08;;;13.75;;
48859;SDS011;34679;51.436;-2.518;2022-12-18T07:54:27;28.77;;;11.48;;
48859;SDS011;34679;51.436;-2.518;2022-12-18T07:56:53;23.90;;;11.52;;
48859;SDS011;34679;51.436;-2.518;2022-12-18T07:59:18;28.90;;;12.93;;
48859;SDS011;34679;51.436;-2.518;2022-12-18T08:01:44;29.25;;;12.98;;
48859;SDS011;34679;51.436;-2.518;2022-12-18T08:04:10;25.30;;;12.15;;
48859;SDS011;34679;51.436;-2.518;2022-12-18T08:06:35;19.55;;;10.65;;
48859;SDS011;34679;51.436;-2.518;2022-12-18T08:09:01;28.17;;;11.52;;
48859;SDS011;34679;51.436;-2.518;2022-12-18T08:11:28;19.88;;;9.82;;
48859;SDS011;34679;51.436;-2.518;2022-12-18T08:13:54;20.85;;;12.43;;
48859;SDS011;34679;51.436;-2.518;2022-12-18T08:16:20;24.52;;;11.73;;
48859;SDS011;34679;51.436;-2.518;2022-12-18T08:18:47;21.25;;;11.85;;
48859;SDS011;34679;51.436;-2.518;2022-12-18T08:21:14;28.20;;;11.00;;
48859;SDS011;34679;51.436;-2.518;2022-12-18T08:23:42;25.00;;;12.40;;
48859;SDS011;34679;51.436;-2.518;2022-12-18T08:26:08;22.10;;;12.35;;
48859;SDS011;34679;51.436;-2.518;2022-12-18T08:28:35;26.40;;;11.50;;
48859;SDS011;34679;51.436;-2.518;2022-12-18T08:31:01;28.42;;;12.55;;
48859;SDS011;34679;51.436;-2.518;2022-12-18T08:33:27;21.45;;;8.77;;
48859;SDS011;34679;51.436;-2.518;2022-12-18T08:35:52;24.98;;;12.32;;
48859;SDS011;34679;51.436;-2.518;2022-12-18T08:38:18;22.17;;;8.50;;
48859;SDS011;34679;51.436;-2.518;2022-12-18T08:40:44;24.52;;;12.13;;
48859;SDS011;34679;51.436;-2.518;2022-12-18T08:43:10;26.40;;;12.02;;
48859;SDS011;34679;51.436;-2.518;2022-12-18T08:45:54;20.50;;;10.65;;
48859;SDS011;34679;51.436;-2.518;2022-12-18T08:48:20;20.23;;;11.15;;
48859;SDS011;34679;51.436;-2.518;2022-12-18T08:50:55;25.10;;;11.00;;
48859;SDS011;34679;51.436;-2.518;2022-12-18T08:53:22;22.67;;;11.65;;
48859;SDS011;34679;51.436;-2.518;2022-12-18T08:55:49;23.15;;;10.63;;
48859;SDS011;34679;51.436;-2.518;2022-12-18T08:58:14;24.08;;;10.80;;
48859;SDS011;34679;51.436;-2.518;2022-12-18T09:00:40;30.27;;;11.80;;
48859;SDS011;34679;51.436;-2.518;2022-12-18T09:03:10;25.58;;;11.18;;
48859;SDS011;34679;51.436;-2.518;2022-12-18T09:05:43;24.98;;;10.93;;
48859;SDS011;34679;51.436;-2.518;2022-12-18T09:08:10;23.40;;;9.13;;
48859;SDS011;34679;51.436;-2.518;2022-12-18T09:10:46;195.57;;;15.48;;
48859;SDS011;34679;51.436;-2.518;2022-12-18T09:13:14;17.52;;;10.43;;
48859;SDS011;34679;51.436;-2.518;2022-12-18T09:15:53;23.08;;;11.40;;
48859;SDS011;34679;51.436;-2.518;2022-12-18T09:18:20;26.17;;;7.65;;
48859;SDS011;34679;51.436;-2.518;2022-12-18T09:20:47;30.63;;;10.63;;
48859;SDS011;34679;51.436;-2.518;2022-12-18T09:23:13;13.63;;;6.05;;
48859;SDS011;34679;51.436;-2.518;2022-12-18T09:25:41;29.90;;;11.48;;
48859;SDS011;34679;51.436;-2.518;2022-12-18T09:28:14;21.38;;;10.63;;
48859;SDS011;34679;51.436;-2.518;2022-12-18T09:30:47;18.80;;;9.70;;
48859;SDS011;34679;51.436;-2.518;2022-12-18T09:33:14;23.55;;;10.23;;
48859;SDS011;34679;51.436;-2.518;2022-12-18T09:35:40;22.98;;;11.35;;
48859;SDS011;34679;51.436;-2.518;2022-12-18T09:38:08;22.02;;;11.27;;
48859;SDS011;34679;51.436;-2.518;2022-12-18T09:40:48;23.98;;;11.13;;
48859;SDS011;34679;51.436;-2.518;2022-12-18T09:43:22;18.75;;;7.13;;
48859;SDS011;34679;51.436;-2.518;2022-12-18T09:45:54;23.85;;;11.80;;
48859;SDS011;34679;51.436;-2.518;2022-12-18T09:50:58;22.58;;;11.18;;
48859;SDS011;34679;51.436;-2.518;2022-12-18T09:53:28;19.70;;;10.32;;
48859;SDS011;34679;51.436;-2.518;2022-12-18T09:55:58;26.55;;;11.20;;
48859;SDS011;34679;51.436;-2.518;2022-12-18T09:58:35;24.88;;;9.52;;
48859;SDS011;34679;51.436;-2.518;2022-12-18T10:01:12;25.67;;;12.75;;
48859;SDS011;34679;51.436;-2.518;2022-12-18T10:03:41;23.40;;;12.20;;
48859;SDS011;34679;51.436;-2.518;2022-12-18T10:16:58;18.98;;;10.50;;
48859;SDS011;34679;51.436;-2.518;2022-12-18T10:22:25;26.48;;;13.52;;
48859;SDS011;34679;51.436;-2.518;2022-12-18T10:27:36;13.27;;;6.68;;
48859;SDS011;34679;51.436;-2.518;2022-12-18T10:30:04;25.48;;;13.73;;
48859;SDS011;34679;51.436;-2.518;2022-12-18T10:32:38;23.38;;;11.45;;
48859;SDS011;34679;51.436;-2.518;2022-12-18T10:35:04;17.00;;;7.68;;
48859;SDS011;34679;51.436;-2.518;2022-12-18T10:37:36;33.42;;;12.90;;
48859;SDS011;34679;51.436;-2.518;2022-12-18T10:40:24;16.58;;;8.75;;
48859;SDS011;34679;51.436;-2.518;2022-12-18T10:43:03;23.58;;;10.40;;
48859;SDS011;34679;51.436;-2.518;2022-12-18T10:45:37;27.70;;;11.50;;
48859;SDS011;34679;51.436;-2.518;2022-12-18T10:48:03;26.83;;;12.18;;
48859;SDS011;34679;51.436;-2.518;2022-12-18T10:50:33;24.17;;;13.38;;
48859;SDS011;34679;51.436;-2.518;2022-12-18T10:53:03;27.55;;;14.27;;
48859;SDS011;34679;51.436;-2.518;2022-12-18T10:55:33;22.80;;;11.75;;
48859;SDS011;34679;51.436;-2.518;2022-12-18T10:58:22;15.43;;;8.47;;
48859;SDS011;34679;51.436;-2.518;2022-12-18T11:01:16;18.27;;;11.43;;
48859;SDS011;34679;51.436;-2.518;2022-12-18T11:06:20;14.20;;;7.32;;
48859;SDS011;34679;51.436;-2.518;2022-12-18T11:09:00;15.88;;;9.30;;
48859;SDS011;34679;51.436;-2.518;2022-12-18T11:11:31;21.38;;;12.57;;
48859;SDS011;34679;51.436;-2.518;2022-12-18T11:14:05;27.02;;;12.68;;
48859;SDS011;34679;51.436;-2.518;2022-12-18T11:16:46;26.98;;;12.05;;
48859;SDS011;34679;51.436;-2.518;2022-12-18T11:21:56;21.60;;;10.93;;
48859;SDS011;34679;51.436;-2.518;2022-12-18T11:24:30;20.85;;;11.15;;
48859;SDS011;34679;51.436;-2.518;2022-12-18T11:29:35;30.30;;;13.60;;
48859;SDS011;34679;51.436;-2.518;2022-12-18T11:34:58;17.85;;;10.07;;
48859;SDS011;34679;51.436;-2.518;2022-12-18T11:37:45;25.88;;;13.35;;
48859;SDS011;34679;51.436;-2.518;2022-12-18T11:40:22;24.13;;;13.32;;
48859;SDS011;34679;51.436;-2.518;2022-12-18T11:46:08;26.10;;;14.35;;
48859;SDS011;34679;51.436;-2.518;2022-12-18T11:48:44;26.83;;;12.60;;
48859;SDS011;34679;51.436;-2.518;2022-12-18T11:51:33;25.73;;;10.70;;
48859;SDS011;34679;51.436;-2.518;2022-12-18T11:54:07;19.58;;;10.52;;
48859;SDS011;34679;51.436;-2.518;2022-12-18T11:56:49;32.97;;;15.02;;
48859;SDS011;34679;51.436;-2.518;2022-12-18T12:02:01;29.42;;;14.63;;
48859;SDS011;34679;51.436;-2.518;2022-12-18T12:08:03;24.52;;;13.00;;
48859;SDS011;34679;51.436;-2.518;2022-12-18T12:11:15;25.23;;;12.70;;
48859;SDS011;34679;51.436;-2.518;2022-12-18T12:14:13;27.08;;;15.68;;
48859;SDS011;34679;51.436;-2.518;2022-12-18T12:21:50;42.85;;;15.65;;
48859;SDS011;34679;51.436;-2.518;2022-12-18T12:27:18;23.57;;;9.70;;
48859;SDS011;34679;51.436;-2.518;2022-12-18T12:36:21;18.95;;;7.00;;
48859;SDS011;34679;51.436;-2.518;2022-12-18T12:38:55;60.80;;;12.80;;
48859;SDS011;34679;51.436;-2.518;2022-12-18T12:41:27;14.98;;;10.02;;
48859;SDS011;34679;51.436;-2.518;2022-12-18T12:44:25;24.90;;;6.45;;
48859;SDS011;34679;51.436;-2.518;2022-12-18T12:47:23;19.02;;;6.25;;
48859;SDS011;34679;51.436;-2.518;2022-12-18T12:50:02;16.77;;;10.10;;
48859;SDS011;34679;51.436;-2.518;2022-12-18T12:52:35;23.80;;;7.35;;
48859;SDS011;34679;51.436;-2.518;2022-12-18T12:55:13;44.28;;;9.90;;
48859;SDS011;34679;51.436;-2.518;2022-12-18T13:01:07;15.82;;;10.02;;
48859;SDS011;34679;51.436;-2.518;2022-12-18T13:03:55;11.18;;;6.95;;
48859;SDS011;34679;51.436;-2.518;2022-12-18T13:06:48;7.53;;;5.05;;
48859;SDS011;34679;51.436;-2.518;2022-12-18T13:10:11;18.10;;;8.13;;
48859;SDS011;34679;51.436;-2.518;2022-12-18T13:12:59;8.52;;;3.78;;
48859;SDS011;34679;51.436;-2.518;2022-12-18T13:15:46;12.13;;;6.68;;
48859;SDS011;34679;51.436;-2.518;2022-12-18T13:18:33;6.57;;;4.28;;
48859;SDS011;34679;51.436;-2.518;2022-12-18T13:23:27;32.42;;;5.78;;
48859;SDS011;34679;51.436;-2.518;2022-12-18T13:25:59;22.60;;;7.75;;
48859;SDS011;34679;51.436;-2.518;2022-12-18T13:33:43;8.13;;;2.13;;
48859;SDS011;34679;51.436;-2.518;2022-12-18T13:38:45;5.68;;;4.78;;
48859;SDS011;34679;51.436;-2.518;2022-12-18T13:43:44;17.33;;;3.60;;
48859;SDS011;34679;51.436;-2.518;2022-12-18T13:48:49;4.95;;;3.42;;
48859;SDS011;34679;51.436;-2.518;2022-12-18T13:51:17;92.65;;;7.13;;
48859;SDS011;34679;51.436;-2.518;2022-12-18T13:53:53;24.13;;;4.95;;
48859;SDS011;34679;51.436;-2.518;2022-12-18T13:56:23;5.95;;;4.40;;
48859;SDS011;34679;51.436;-2.518;2022-12-18T14:01:46;4.00;;;3.60;;
48859;SDS011;34679;51.436;-2.518;2022-12-18T14:04:24;3.83;;;3.08;;
48859;SDS011;34679;51.436;-2.518;2022-12-18T14:06:51;8.98;;;4.72;;
48859;SDS011;34679;51.436;-2.518;2022-12-18T14:09:22;5.85;;;3.22;;
48859;SDS011;34679;51.436;-2.518;2022-12-18T14:11:50;6.82;;;3.88;;
48859;SDS011;34679;51.436;-2.518;2022-12-18T14:14:17;7.85;;;4.32;;
48859;SDS011;34679;51.436;-2.518;2022-12-18T14:16:45;4.28;;;3.83;;
48859;SDS011;34679;51.436;-2.518;2022-12-18T14:19:13;4.32;;;3.90;;
48859;SDS011;34679;51.436;-2.518;2022-12-18T14:21:45;2.85;;;2.58;;
48859;SDS011;34679;51.436;-2.518;2022-12-18T14:24:16;1.75;;;1.65;;
48859;SDS011;34679;51.436;-2.518;2022-12-18T14:26:47;5.22;;;2.30;;
48859;SDS011;34679;51.436;-2.518;2022-12-18T14:31:45;2.90;;;1.63;;
48859;SDS011;34679;51.436;-2.518;2022-12-18T14:34:17;1.80;;;1.70;;
48859;SDS011;34679;51.436;-2.518;2022-12-18T14:36:51;2.38;;;1.38;;
48859;SDS011;34679;51.436;-2.518;2022-12-18T14:39:18;1.52;;;1.35;;
48859;SDS011;34679;51.436;-2.518;2022-12-18T14:41:43;10.90;;;1.80;;
48859;SDS011;34679;51.436;-2.518;2022-12-18T14:44:11;1.48;;;1.35;;
48859;SDS011;34679;51.436;-2.518;2022-12-18T14:46:44;1.58;;;1.25;;
48859;SDS011;34679;51.436;-2.518;2022-12-18T14:51:49;1.52;;;1.17;;
48859;SDS011;34679;51.436;-2.518;2022-12-18T14:54:18;3.60;;;1.27;;
48859;SDS011;34679;51.436;-2.518;2022-12-18T14:56:48;3.97;;;1.83;;
48859;SDS011;34679;51.436;-2.518;2022-12-18T14:59:21;3.47;;;1.13;;
48859;SDS011;34679;51.436;-2.518;2022-12-18T15:01:55;3.85;;;1.50;;
48859;SDS011;34679;51.436;-2.518;2022-12-18T15:04:26;3.08;;;1.23;;
48859;SDS011;34679;51.436;-2.518;2022-12-18T15:07:04;3.35;;;1.83;;
48859;SDS011;34679;51.436;-2.518;2022-12-18T15:09:36;1.88;;;1.30;;
48859;SDS011;34679;51.436;-2.518;2022-12-18T15:12:04;1.55;;;1.45;;
48859;SDS011;34679;51.436;-2.518;2022-12-18T15:14:40;4.05;;;1.48;;
48859;SDS011;34679;51.436;-2.518;2022-12-18T15:17:14;3.70;;;1.38;;
48859;SDS011;34679;51.436;-2.518;2022-12-18T15:19:46;8.55;;;1.58;;
48859;SDS011;34679;51.436;-2.518;2022-12-18T15:22:26;20.30;;;1.65;;
48859;SDS011;34679;51.436;-2.518;2022-12-18T15:24:58;4.43;;;1.40;;
48859;SDS011;34679;51.436;-2.518;2022-12-18T15:27:31;2.33;;;2.00;;
48859;SDS011;34679;51.436;-2.518;2022-12-18T15:32:35;4.43;;;2.10;;
48859;SDS011;34679;51.436;-2.518;2022-12-18T15:37:39;3.72;;;1.88;;
48859;SDS011;34679;51.436;-2.518;2022-12-18T15:40:05;26.33;;;2.83;;
48859;SDS011;34679;51.436;-2.518;2022-12-18T15:42:32;2.30;;;1.73;;
48859;SDS011;34679;51.436;-2.518;2022-12-18T15:45:17;17.85;;;2.03;;
48859;SDS011;34679;51.436;-2.518;2022-12-18T15:47:43;9.13;;;1.13;;
48859;SDS011;34679;51.436;-2.518;2022-12-18T15:50:09;7.63;;;1.20;;
48859;SDS011;34679;51.436;-2.518;2022-12-18T15:52:45;11.57;;;1.52;;
48859;SDS011;34679;51.436;-2.518;2022-12-18T15:55:13;24.13;;;1.63;;
48859;SDS011;34679;51.436;-2.518;2022-12-18T15:57:59;4.13;;;1.48;;
48859;SDS011;34679;51.436;-2.518;2022-12-18T16:00:25;1.90;;;1.42;;
48859;SDS011;34679;51.436;-2.518;2022-12-18T16:02:52;8.68;;;1.52;;
48859;SDS011;34679;51.436;-2.518;2022-12-18T16:05:19;12.88;;;1.60;;
48859;SDS011;34679;51.436;-2.518;2022-12-18T16:07:46;2.17;;;1.77;;
48859;SDS011;34679;51.436;-2.518;2022-12-18T16:10:12;20.83;;;1.92;;
48859;SDS011;34679;51.436;-2.518;2022-12-18T16:12:38;1.75;;;1.27;;
48859;SDS011;34679;51.436;-2.518;2022-12-18T16:15:04;7.30;;;1.50;;
48859;SDS011;34679;51.436;-2.518;2022-12-18T16:17:31;2.08;;;1.23;;
48859;SDS011;34679;51.436;-2.518;2022-12-18T16:19:56;2.33;;;1.20;;
48859;SDS011;34679;51.436;-2.518;2022-12-18T16:22:26;3.33;;;1.45;;
48859;SDS011;34679;51.436;-2.518;2022-12-18T16:24:53;1.33;;;1.13;;
48859;SDS011;34679;51.436;-2.518;2022-12-18T16:27:20;4.95;;;1.40;;
48859;SDS011;34679;51.436;-2.518;2022-12-18T16:29:48;1.88;;;1.35;;
48859;SDS011;34679;51.436;-2.518;2022-12-18T16:32:15;2.50;;;1.30;;
48859;SDS011;34679;51.436;-2.518;2022-12-18T16:34:43;6.00;;;1.60;;
48859;SDS011;34679;51.436;-2.518;2022-12-18T16:37:10;3.35;;;1.35;;
48859;SDS011;34679;51.436;-2.518;2022-12-18T16:39:38;2.85;;;1.30;;
48859;SDS011;34679;51.436;-2.518;2022-12-18T16:42:05;1.38;;;1.15;;
48859;SDS011;34679;51.436;-2.518;2022-12-18T16:44:41;13.73;;;1.80;;
48859;SDS011;34679;51.436;-2.518;2022-12-18T16:47:08;1.70;;;1.50;;